Terminal Aerodrome Forecast
Issued by NWS

Home | Current Version | Previous Version | Text Only | Print | Product List | Glossary Off
Versions: 1 2 3 4 5 6 7 8 9 10 11 12 13 14 15 16 17 18 19 20 21 22 23 24 25 26 27 28 29 30 31 32

527
FTUS43 KGRB 270334 AAA
TAFRHI
TAF AMD
KRHI 270334Z 2704/2724 27012G18KT P6SM -SHRA OVC035
     FM270600 27012KT P6SM VCSH OVC025
     FM271000 27012KT P6SM VCSH OVC015
     FM271400 28012G18KT P6SM -SHRA OVC010
     FM271600 29011KT 4SM -SHRA BR OVC007
     FM272200 29008KT 4SM BR VCSH BKN003 OVC007=

USA.gov is the U.S. government's official web portal to all federal, state and local government web resources and services.